weather.gov     
National Weather Service

Terminal Aerodrome Forecast
NWS Homepage
This page is being discontinued on March 12, 2014.
The same data is available at this site. Please update your bookmarks.
Thank you, and we apologize for the inconvenience.
Please send an email to SR-SRH.Webmaster@noaa.gov with any concerns.


Current Version
Previous Version:    01  02  03  04  05  06  07  08  09  10  11  12  13  14  15  16  17  18  19  20  21  22  23  
[Printable]
587
FTUS42 KGSP 311121
TAFAVL
TAF
KAVL 311121Z 3112/0112 34005KT P6SM OVC050
     FM312100 32006KT P6SM VCSH SCT040 OVC070
     FM010200 32011KT P6SM -RA BKN040 OVC080
     FM010500 32013KT P6SM -RASN BKN025
     FM010700 32014KT P6SM -SHSN BKN016
      TEMPO 0109/0112 3SM -SN BKN008=


587
FTUS42 KGSP 311121
TAFAVL
TAF
KAVL 311121Z 3112/0112 34005KT P6SM OVC050
     FM312100 32006KT P6SM VCSH SCT040 OVC070
     FM010200 32011KT P6SM -RA BKN040 OVC080
     FM010500 32013KT P6SM -RASN BKN025
     FM010700 32014KT P6SM -SHSN BKN016
      TEMPO 0109/0112 3SM -SN BKN008=




U.S. Dept. of Commerce
NOAA National Weather Service
1325 East West Highway
Silver Spring, MD 20910
E-mail: w-nws.webmaster@noaa.gov
Page last modified: May 16, 2007
NATIONAL WEATHER SERVICE: for Safety, for Work, for Fun - FOR LIFE